createdAt,value
2022-10-07T00:00:55.851Z,6.60
2022-10-07T00:03:25.731Z,6.60
2022-10-07T00:06:13.568Z,6.60
2022-10-07T00:08:44.236Z,6.60
2022-10-07T00:11:24.369Z,6.70
2022-10-07T00:14:03.065Z,6.70
2022-10-07T00:16:33.575Z,6.60
2022-10-07T00:19:04.260Z,6.40
2022-10-07T00:21:33.509Z,6.30
2022-10-07T00:24:00.444Z,6.20
2022-10-07T00:26:30.842Z,6.20
2022-10-07T00:28:57.656Z,6.20
2022-10-07T00:31:30.761Z,6.10
2022-10-07T00:33:58.944Z,6.10
2022-10-07T00:36:30.470Z,6.10
2022-10-07T00:39:00.964Z,6.10
2022-10-07T00:41:38.071Z,6.10
2022-10-07T00:44:37.745Z,6.00
2022-10-07T00:47:31.350Z,6.00
2022-10-07T00:50:07.592Z,5.80
2022-10-07T00:52:43.980Z,5.80
2022-10-07T00:55:17.958Z,5.70
2022-10-07T00:57:47.205Z,5.70
2022-10-07T01:00:14.436Z,5.70
2022-10-07T01:02:41.281Z,5.70
2022-10-07T01:05:10.340Z,5.70
2022-10-07T01:07:41.023Z,5.70
2022-10-07T01:10:11.571Z,5.70
2022-10-07T01:12:51.516Z,5.70
2022-10-07T01:15:28.700Z,5.60
2022-10-07T01:18:04.104Z,5.60
2022-10-07T01:20:46.719Z,5.50
2022-10-07T01:23:44.278Z,5.50
2022-10-07T01:26:42.797Z,5.60
2022-10-07T01:29:33.482Z,5.60
2022-10-07T01:32:11.603Z,5.50
2022-10-07T01:34:41.752Z,5.50
2022-10-07T01:37:13.289Z,5.40
2022-10-07T01:39:48.730Z,5.30
2022-10-07T01:42:16.176Z,5.30
2022-10-07T01:44:45.481Z,5.30
2022-10-07T01:47:12.101Z,5.30
2022-10-07T01:49:38.737Z,5.30
2022-10-07T01:52:30.949Z,5.30
2022-10-07T01:55:35.232Z,5.40
2022-10-07T01:58:33.030Z,5.40
2022-10-07T02:01:09.105Z,5.30
2022-10-07T02:03:56.411Z,5.30
2022-10-07T02:06:50.089Z,5.30
2022-10-07T02:09:39.333Z,5.30
2022-10-07T02:12:22.435Z,5.40
2022-10-07T02:15:00.099Z,5.40
2022-10-07T02:17:31.192Z,5.30
2022-10-07T02:20:00.148Z,5.30
2022-10-07T02:22:28.741Z,5.30
2022-10-07T02:24:59.018Z,5.20
2022-10-07T02:27:32.843Z,5.20
2022-10-07T02:30:11.763Z,5.20
2022-10-07T02:32:45.954Z,5.20
2022-10-07T02:35:24.016Z,5.10
2022-10-07T02:37:54.239Z,5.10
2022-10-07T02:40:26.622Z,5.00
2022-10-07T02:43:29.708Z,4.90
2022-10-07T02:46:04.706Z,4.90
2022-10-07T02:48:44.121Z,4.90
2022-10-07T02:51:21.311Z,4.90
2022-10-07T02:53:51.849Z,4.80
2022-10-07T02:56:22.726Z,4.90
2022-10-07T02:58:50.838Z,4.80
2022-10-07T03:01:23.526Z,4.70
2022-10-07T03:03:50.241Z,4.70
2022-10-07T03:06:18.975Z,4.60
2022-10-07T03:08:47.807Z,4.70
2022-10-07T03:11:14.416Z,4.70
2022-10-07T03:13:41.007Z,4.70
2022-10-07T03:16:07.787Z,4.60
2022-10-07T03:18:34.442Z,4.60
2022-10-07T03:21:01.043Z,4.60
2022-10-07T03:23:29.218Z,4.60
2022-10-07T03:25:58.153Z,4.60
2022-10-07T03:28:27.523Z,4.60
2022-10-07T03:30:55.255Z,4.60
2022-10-07T03:33:26.253Z,4.50
2022-10-07T03:35:53.680Z,4.50
2022-10-07T03:38:21.277Z,4.40
2022-10-07T03:40:47.911Z,4.40
2022-10-07T03:43:14.518Z,4.50
2022-10-07T03:45:45.654Z,4.50
2022-10-07T03:48:12.298Z,4.50
2022-10-07T03:50:38.827Z,4.60
2022-10-07T03:53:05.430Z,4.60
2022-10-07T03:55:32.299Z,4.60
2022-10-07T03:57:59.826Z,4.60
2022-10-07T04:00:27.430Z,4.50
2022-10-07T04:02:54.291Z,4.30
2022-10-07T04:05:22.170Z,4.30
2022-10-07T04:07:50.551Z,4.40
2022-10-07T04:10:21.342Z,4.40
2022-10-07T04:12:54.038Z,4.40
2022-10-07T04:15:21.051Z,4.50
2022-10-07T04:17:49.762Z,4.50
2022-10-07T04:20:17.089Z,4.40
2022-10-07T04:22:43.914Z,4.40
2022-10-07T04:25:33.411Z,4.40
2022-10-07T04:28:25.964Z,4.30
2022-10-07T04:30:53.847Z,4.30
2022-10-07T04:33:23.959Z,4.20
2022-10-07T04:35:51.176Z,4.20
2022-10-07T04:38:18.742Z,4.30
2022-10-07T04:40:49.842Z,4.30
2022-10-07T04:43:20.159Z,4.30
2022-10-07T04:45:52.542Z,4.40
2022-10-07T04:48:21.807Z,4.30
2022-10-07T04:50:49.335Z,4.30
2022-10-07T04:53:16.578Z,4.30
2022-10-07T04:55:46.577Z,4.20
2022-10-07T04:58:15.018Z,4.20
2022-10-07T05:00:48.412Z,4.20
2022-10-07T05:03:16.943Z,4.30
2022-10-07T05:05:51.272Z,4.30
2022-10-07T05:08:21.411Z,4.30
2022-10-07T05:10:54.191Z,4.40
2022-10-07T05:13:20.750Z,4.30
2022-10-07T05:15:53.318Z,4.30
2022-10-07T05:18:23.011Z,4.30
2022-10-07T05:20:50.390Z,4.20
2022-10-07T05:23:24.420Z,4.20
2022-10-07T05:26:00.163Z,4.20
2022-10-07T05:28:27.023Z,4.10
2022-10-07T05:31:12.880Z,4.10
2022-10-07T05:33:39.979Z,4.00
2022-10-07T05:36:08.699Z,4.10
2022-10-07T05:38:36.799Z,4.10
2022-10-07T05:41:12.179Z,4.10
2022-10-07T05:43:44.938Z,4.10
2022-10-07T05:46:17.276Z,4.10
2022-10-07T05:48:52.538Z,4.00
2022-10-07T05:51:20.468Z,4.10
2022-10-07T05:53:47.346Z,4.10
2022-10-07T05:56:17.530Z,4.10
2022-10-07T05:58:44.586Z,4.10
2022-10-07T06:01:17.459Z,4.10
2022-10-07T06:03:49.708Z,4.20
2022-10-07T06:06:17.143Z,4.20
2022-10-07T06:08:43.864Z,4.30
2022-10-07T06:11:31.927Z,4.30
2022-10-07T06:13:59.187Z,4.40
2022-10-07T06:16:26.052Z,4.50
2022-10-07T06:18:54.303Z,4.70
2022-10-07T06:21:25.734Z,4.50
2022-10-07T06:23:53.476Z,4.60
2022-10-07T06:26:21.354Z,4.60
2022-10-07T06:28:48.658Z,4.70
2022-10-07T06:31:22.201Z,4.80
2022-10-07T06:33:51.885Z,4.90
2022-10-07T06:36:19.073Z,5.00
2022-10-07T06:38:51.037Z,5.10
2022-10-07T06:41:18.134Z,5.20
2022-10-07T06:43:45.103Z,5.30
2022-10-07T06:46:19.965Z,5.40
2022-10-07T06:48:54.299Z,5.60
2022-10-07T06:51:22.270Z,5.80
2022-10-07T06:53:54.723Z,6.10
2022-10-07T06:56:21.310Z,6.40
2022-10-07T06:58:49.687Z,6.70
2022-10-07T07:01:16.928Z,6.90
2022-10-07T07:03:43.593Z,6.90
2022-10-07T07:06:14.687Z,7.00
2022-10-07T07:08:44.647Z,7.10
2022-10-07T07:11:32.631Z,7.20
2022-10-07T07:13:59.539Z,7.30
2022-10-07T07:16:31.316Z,7.50
2022-10-07T07:19:01.901Z,7.80
2022-10-07T07:21:30.055Z,8.00
2022-10-07T07:23:58.019Z,8.60
2022-10-07T07:26:24.848Z,9.00
2022-10-07T07:28:53.376Z,9.10
2022-10-07T07:31:20.557Z,9.30
2022-10-07T07:33:52.290Z,9.70
2022-10-07T07:36:23.600Z,10.90
2022-10-07T07:38:56.769Z,13.40
2022-10-07T07:41:27.819Z,16.20
2022-10-07T07:43:57.241Z,18.30
2022-10-07T07:46:27.222Z,19.50
2022-10-07T07:48:55.087Z,19.50
2022-10-07T07:51:22.608Z,18.00
2022-10-07T07:53:50.179Z,16.50
2022-10-07T07:56:18.092Z,15.50
2022-10-07T07:58:45.043Z,14.50
2022-10-07T08:01:16.105Z,14.10
2022-10-07T08:03:46.204Z,13.50
2022-10-07T08:06:15.144Z,13.50
2022-10-07T08:08:44.491Z,13.40
2022-10-07T08:11:17.320Z,14.60
2022-10-07T08:13:44.563Z,16.80
2022-10-07T08:16:14.300Z,19.00
2022-10-07T08:18:42.502Z,20.30
2022-10-07T08:21:10.594Z,21.70
2022-10-07T08:23:39.767Z,22.70
2022-10-07T08:26:08.317Z,23.10
2022-10-07T08:28:37.738Z,23.80
2022-10-07T08:31:14.190Z,23.80
2022-10-07T08:33:44.835Z,24.50
2022-10-07T08:36:17.899Z,25.30
2022-10-07T08:38:49.066Z,24.70
2022-10-07T08:41:32.967Z,25.10
2022-10-07T08:44:23.889Z,25.00
2022-10-07T08:47:30.316Z,25.00
2022-10-07T08:50:19.905Z,25.80
2022-10-07T08:52:51.755Z,26.10
2022-10-07T08:55:45.956Z,25.00
2022-10-07T08:58:35.057Z,23.00
2022-10-07T09:01:36.000Z,20.80
2022-10-07T09:04:35.531Z,19.00
2022-10-07T09:07:14.472Z,17.20
2022-10-07T09:10:08.842Z,16.20
2022-10-07T09:12:38.852Z,15.30
2022-10-07T09:15:21.126Z,14.80
2022-10-07T09:17:59.401Z,14.30
2022-10-07T09:20:34.877Z,14.00
2022-10-07T09:23:04.767Z,14.00
2022-10-07T09:25:32.727Z,13.70
2022-10-07T09:27:59.980Z,13.60
2022-10-07T09:30:32.322Z,13.60
2022-10-07T09:32:58.958Z,13.50
2022-10-07T09:35:29.987Z,13.50
2022-10-07T09:38:09.398Z,13.50
2022-10-07T09:41:02.665Z,13.50
2022-10-07T09:43:31.542Z,13.60
2022-10-07T09:46:00.507Z,13.60
2022-10-07T09:48:34.153Z,13.70
2022-10-07T09:51:19.215Z,13.80
2022-10-07T09:54:17.295Z,13.90
2022-10-07T09:56:46.507Z,13.90
2022-10-07T09:59:31.097Z,13.70
2022-10-07T10:02:13.803Z,13.90
2022-10-07T10:04:55.848Z,13.90
2022-10-07T10:07:33.819Z,13.70
2022-10-07T10:10:13.949Z,13.80
2022-10-07T10:12:51.044Z,13.70
2022-10-07T10:15:36.441Z,13.60
2022-10-07T10:18:25.419Z,13.80
2022-10-07T10:20:52.355Z,13.90
2022-10-07T10:23:34.719Z,13.90
2022-10-07T10:26:38.619Z,13.90
2022-10-07T10:29:40.827Z,13.80
2022-10-07T10:32:44.083Z,13.80
2022-10-07T10:35:25.993Z,14.00
2022-10-07T10:38:10.809Z,14.10
2022-10-07T10:41:01.388Z,14.20
2022-10-07T10:43:49.989Z,14.40
2022-10-07T10:47:21.510Z,14.40
2022-10-07T10:50:44.322Z,14.50
2022-10-07T10:53:48.481Z,14.60
2022-10-07T10:56:34.167Z,14.50
2022-10-07T10:59:20.513Z,14.60
2022-10-07T11:02:40.618Z,14.70
2022-10-07T11:05:17.321Z,14.70
2022-10-07T11:07:50.893Z,14.80
2022-10-07T11:10:36.814Z,14.80
2022-10-07T11:13:28.089Z,14.90
2022-10-07T11:16:07.867Z,15.00
2022-10-07T11:18:45.485Z,15.10
2022-10-07T11:21:20.613Z,15.10
2022-10-07T11:24:02.100Z,15.10
2022-10-07T11:26:41.992Z,15.00
2022-10-07T11:29:31.578Z,15.10
2022-10-07T11:32:26.400Z,15.10
2022-10-07T11:35:20.200Z,15.30
2022-10-07T11:38:12.798Z,15.30
2022-10-07T11:40:59.382Z,15.30
2022-10-07T11:43:40.801Z,15.40
2022-10-07T11:46:13.649Z,15.40
2022-10-07T11:48:49.017Z,15.40
2022-10-07T11:51:30.740Z,15.50
2022-10-07T11:54:02.842Z,15.50
2022-10-07T11:56:39.408Z,15.60
2022-10-07T11:59:07.323Z,15.70
2022-10-07T12:01:47.577Z,15.90
2022-10-07T12:04:29.563Z,15.90
2022-10-07T12:07:39.036Z,15.90
2022-10-07T12:10:29.517Z,16.00
2022-10-07T12:13:21.797Z,16.10
2022-10-07T12:15:50.143Z,16.10
2022-10-07T12:18:19.609Z,16.10
2022-10-07T12:20:55.414Z,16.20
2022-10-07T12:23:32.118Z,16.40
2022-10-07T12:26:03.194Z,16.40
2022-10-07T12:28:35.164Z,16.30
2022-10-07T12:31:16.257Z,16.40
2022-10-07T12:33:45.725Z,16.40
2022-10-07T12:36:21.242Z,16.40
2022-10-07T12:38:59.450Z,16.40
2022-10-07T12:41:46.064Z,16.50
2022-10-07T12:44:36.662Z,16.60
2022-10-07T12:47:23.263Z,16.60
2022-10-07T12:49:58.471Z,16.60
2022-10-07T12:52:36.911Z,16.70
2022-10-07T12:55:10.932Z,16.70
2022-10-07T12:57:42.118Z,16.70
2022-10-07T13:00:24.247Z,16.80
2022-10-07T13:03:17.085Z,16.80
2022-10-07T13:06:18.046Z,16.90
2022-10-07T13:09:13.585Z,17.00
2022-10-07T13:12:07.593Z,17.10
2022-10-07T13:14:53.510Z,17.00
2022-10-07T13:17:35.832Z,17.00
2022-10-07T13:20:17.147Z,16.90
2022-10-07T13:22:49.117Z,16.90
2022-10-07T13:25:19.993Z,17.00
2022-10-07T13:27:57.145Z,17.00
2022-10-07T13:30:33.610Z,16.90
2022-10-07T13:33:31.618Z,17.00
2022-10-07T13:36:23.562Z,16.90
2022-10-07T13:38:54.561Z,16.90
2022-10-07T13:41:26.555Z,17.00
2022-10-07T13:43:59.946Z,16.90
2022-10-07T13:46:29.886Z,16.90
2022-10-07T13:48:59.134Z,17.00
2022-10-07T13:51:36.598Z,16.90
2022-10-07T13:54:24.518Z,16.90
2022-10-07T13:56:51.898Z,17.10
2022-10-07T13:59:20.378Z,17.10
2022-10-07T14:01:54.464Z,17.10
2022-10-07T14:04:28.406Z,17.10
2022-10-07T14:06:57.403Z,17.20
2022-10-07T14:09:47.315Z,17.20
2022-10-07T14:12:31.252Z,17.40
2022-10-07T14:15:23.256Z,17.30
2022-10-07T14:17:54.994Z,17.40
2022-10-07T14:20:38.679Z,17.50
2022-10-07T14:23:19.983Z,17.70
2022-10-07T14:26:10.888Z,17.90
2022-10-07T14:28:40.324Z,18.00
2022-10-07T14:31:25.586Z,18.00
2022-10-07T14:34:26.836Z,17.90
2022-10-07T14:37:13.666Z,17.70
2022-10-07T14:39:49.950Z,17.60
2022-10-07T14:42:22.050Z,17.50
2022-10-07T14:44:49.939Z,17.40
2022-10-07T14:47:21.004Z,17.30
2022-10-07T14:49:55.115Z,17.20
2022-10-07T14:52:37.812Z,17.20
2022-10-07T14:55:14.679Z,17.20
2022-10-07T14:57:41.543Z,17.10
2022-10-07T15:00:20.105Z,17.20
2022-10-07T15:02:50.102Z,17.10
2022-10-07T15:05:18.643Z,17.10
2022-10-07T15:07:45.486Z,17.10
2022-10-07T15:10:15.759Z,17.10
2022-10-07T15:12:44.183Z,17.10
2022-10-07T15:15:15.186Z,17.10
2022-10-07T15:17:43.062Z,17.00
2022-10-07T15:20:14.003Z,17.00
2022-10-07T15:22:40.971Z,17.00
2022-10-07T15:25:09.971Z,16.90
2022-10-07T15:27:37.608Z,16.90
2022-10-07T15:30:07.070Z,16.80
2022-10-07T15:32:34.270Z,16.90
2022-10-07T15:35:00.947Z,16.90
2022-10-07T15:37:27.817Z,16.90
2022-10-07T15:39:55.077Z,16.90
2022-10-07T15:42:24.583Z,16.80
2022-10-07T15:44:52.115Z,16.70
2022-10-07T15:47:19.264Z,16.60
2022-10-07T15:49:45.898Z,16.60
2022-10-07T15:52:12.924Z,16.60
2022-10-07T15:54:40.039Z,16.40
2022-10-07T15:57:08.219Z,16.30
2022-10-07T15:59:35.570Z,16.10
2022-10-07T16:02:02.551Z,16.00
2022-10-07T16:04:29.171Z,15.90
2022-10-07T16:06:55.782Z,15.80
2022-10-07T16:09:23.414Z,15.60
2022-10-07T16:11:50.295Z,15.50
2022-10-07T16:14:16.892Z,15.30
2022-10-07T16:16:43.595Z,15.20
2022-10-07T16:19:11.505Z,15.20
2022-10-07T16:21:41.276Z,15.00
2022-10-07T16:24:19.118Z,15.00
2022-10-07T16:26:47.502Z,14.80
2022-10-07T16:29:35.393Z,14.70
2022-10-07T16:32:02.253Z,14.60
2022-10-07T16:34:29.260Z,14.50
2022-10-07T16:36:57.922Z,14.50
2022-10-07T16:39:25.125Z,14.40
2022-10-07T16:41:52.542Z,14.40
2022-10-07T16:44:20.287Z,14.30
2022-10-07T16:46:48.174Z,14.20
2022-10-07T16:49:17.401Z,14.00
2022-10-07T16:51:44.960Z,13.90
2022-10-07T16:54:16.139Z,13.70
2022-10-07T16:56:46.876Z,13.50
2022-10-07T16:59:22.317Z,13.30
2022-10-07T17:01:56.230Z,13.20
2022-10-07T17:04:24.307Z,13.10
2022-10-07T17:06:51.270Z,13.00
2022-10-07T17:09:18.323Z,12.80
2022-10-07T17:11:45.656Z,12.70
2022-10-07T17:14:18.831Z,12.50
2022-10-07T17:16:56.046Z,12.40
2022-10-07T17:19:26.428Z,12.30
2022-10-07T17:21:55.223Z,12.10
2022-10-07T17:24:23.508Z,12.00
2022-10-07T17:26:52.260Z,11.90
2022-10-07T17:29:21.355Z,11.90
2022-10-07T17:31:50.294Z,11.90
2022-10-07T17:34:19.820Z,11.90
2022-10-07T17:36:47.648Z,11.80
2022-10-07T17:39:15.017Z,11.70
2022-10-07T17:41:41.657Z,11.70
2022-10-07T17:44:11.470Z,11.70
2022-10-07T17:46:39.964Z,11.70
2022-10-07T17:49:09.860Z,11.70
2022-10-07T17:51:37.334Z,11.70
2022-10-07T17:54:06.223Z,11.60
2022-10-07T17:56:34.428Z,11.50
2022-10-07T17:59:02.469Z,11.50
2022-10-07T18:01:33.757Z,11.50
2022-10-07T18:04:06.661Z,11.40
2022-10-07T18:06:36.928Z,11.40
2022-10-07T18:09:08.994Z,11.40
2022-10-07T18:11:54.462Z,11.30
2022-10-07T18:14:39.710Z,11.30
2022-10-07T18:17:09.516Z,11.20
2022-10-07T18:19:36.264Z,11.20
2022-10-07T18:22:03.071Z,11.10
2022-10-07T18:24:29.837Z,11.00
2022-10-07T18:26:59.192Z,11.10
2022-10-07T18:29:32.659Z,11.10
2022-10-07T18:32:00.320Z,11.00
2022-10-07T18:34:27.022Z,11.00
2022-10-07T18:36:56.946Z,11.00
2022-10-07T18:39:29.273Z,11.00
2022-10-07T18:41:56.568Z,11.00
2022-10-07T18:44:23.303Z,11.00
2022-10-07T18:46:50.424Z,11.00
2022-10-07T18:49:16.984Z,10.90
2022-10-07T18:51:45.553Z,10.90
2022-10-07T18:54:12.473Z,10.90
2022-10-07T18:56:41.301Z,10.80
2022-10-07T18:59:09.769Z,10.80
2022-10-07T19:01:37.295Z,10.70
2022-10-07T19:04:04.460Z,10.70
2022-10-07T19:06:35.352Z,10.60
2022-10-07T19:09:09.314Z,10.60
2022-10-07T19:11:35.913Z,10.50
2022-10-07T19:14:02.576Z,10.50
2022-10-07T19:16:42.700Z,10.40
2022-10-07T19:19:15.445Z,10.40
2022-10-07T19:21:43.296Z,10.40
2022-10-07T19:24:09.910Z,10.40
2022-10-07T19:26:42.155Z,10.30
2022-10-07T19:29:10.741Z,10.30
2022-10-07T19:31:43.360Z,10.30
2022-10-07T19:34:20.039Z,10.20
2022-10-07T19:36:50.250Z,10.20
2022-10-07T19:39:21.989Z,10.20
2022-10-07T19:41:50.829Z,10.10
2022-10-07T19:44:18.268Z,10.10
2022-10-07T19:46:44.933Z,10.10
2022-10-07T19:49:12.441Z,10.10
2022-10-07T19:51:40.223Z,10.10
2022-10-07T19:54:11.866Z,10.00
2022-10-07T19:56:40.384Z,10.00
2022-10-07T19:59:13.856Z,10.10
2022-10-07T20:01:43.448Z,10.10
2022-10-07T20:04:14.350Z,10.10
2022-10-07T20:06:41.942Z,10.10
2022-10-07T20:09:13.591Z,10.10
2022-10-07T20:11:40.762Z,10.10
2022-10-07T20:14:07.562Z,10.10
2022-10-07T20:16:34.856Z,10.20
2022-10-07T20:19:06.767Z,10.20
2022-10-07T20:21:36.059Z,10.20
2022-10-07T20:24:04.670Z,10.30
2022-10-07T20:26:34.572Z,10.40
2022-10-07T20:29:03.545Z,10.40
2022-10-07T20:31:35.560Z,10.50
2022-10-07T20:34:02.974Z,10.60
2022-10-07T20:36:34.120Z,10.70
2022-10-07T20:39:26.842Z,10.80
2022-10-07T20:42:12.561Z,10.80
2022-10-07T20:44:39.586Z,10.90
2022-10-07T20:47:09.305Z,11.00
2022-10-07T20:49:38.620Z,11.00
2022-10-07T20:52:13.789Z,11.10
2022-10-07T20:54:40.390Z,11.10
2022-10-07T20:57:07.080Z,11.20
2022-10-07T20:59:33.694Z,11.20
2022-10-07T21:02:03.830Z,11.20
2022-10-07T21:04:32.943Z,11.20
2022-10-07T21:06:59.742Z,11.10
2022-10-07T21:09:26.653Z,11.00
2022-10-07T21:11:54.735Z,10.90
2022-10-07T21:14:22.475Z,10.90
2022-10-07T21:16:49.171Z,10.90
2022-10-07T21:19:16.961Z,10.90
2022-10-07T21:21:43.625Z,10.80
2022-10-07T21:24:10.696Z,10.90
2022-10-07T21:26:37.569Z,10.80
2022-10-07T21:29:07.929Z,10.80
2022-10-07T21:31:35.548Z,10.70
2022-10-07T21:34:07.641Z,10.70
2022-10-07T21:36:43.793Z,10.60
2022-10-07T21:39:12.945Z,10.60
2022-10-07T21:41:41.357Z,10.50
2022-10-07T21:44:12.020Z,10.50
2022-10-07T21:46:45.356Z,10.40
2022-10-07T21:49:15.893Z,10.30
2022-10-07T21:51:43.729Z,10.30
2022-10-07T21:54:16.386Z,10.20
2022-10-07T21:56:45.887Z,10.20
2022-10-07T21:59:13.693Z,10.20
2022-10-07T22:01:41.631Z,10.20
2022-10-07T22:04:16.993Z,10.30
2022-10-07T22:07:03.080Z,10.40
2022-10-07T22:09:30.940Z,10.50
2022-10-07T22:11:57.525Z,10.40
2022-10-07T22:14:24.258Z,10.40
2022-10-07T22:16:50.833Z,10.40
2022-10-07T22:19:17.730Z,10.30
2022-10-07T22:21:45.513Z,10.20
2022-10-07T22:24:12.517Z,10.20
2022-10-07T22:26:46.058Z,10.10
2022-10-07T22:29:14.701Z,10.10
2022-10-07T22:31:41.769Z,10.00
2022-10-07T22:34:08.533Z,10.00
2022-10-07T22:36:36.663Z,10.00
2022-10-07T22:39:03.822Z,9.90
2022-10-07T22:41:30.838Z,10.00
2022-10-07T22:43:58.901Z,10.00
2022-10-07T22:46:28.195Z,10.10
2022-10-07T22:48:58.478Z,10.10
2022-10-07T22:51:29.292Z,10.00
2022-10-07T22:53:57.649Z,10.00
2022-10-07T22:56:27.885Z,9.90
2022-10-07T22:58:59.584Z,9.80
2022-10-07T23:01:29.966Z,9.80
2022-10-07T23:04:03.054Z,9.70
2022-10-07T23:06:35.252Z,9.70
2022-10-07T23:09:03.489Z,9.70
2022-10-07T23:11:30.754Z,9.70
2022-10-07T23:13:57.441Z,9.60
2022-10-07T23:16:29.130Z,9.70
2022-10-07T23:18:56.042Z,9.60
2022-10-07T23:21:28.789Z,9.60
2022-10-07T23:24:04.349Z,9.50
2022-10-07T23:26:34.077Z,9.60
2022-10-07T23:29:01.707Z,9.60
2022-10-07T23:31:31.450Z,9.60
2022-10-07T23:33:59.601Z,9.60
2022-10-07T23:36:27.298Z,9.50
2022-10-07T23:38:54.353Z,9.50
2022-10-07T23:41:24.915Z,9.50
2022-10-07T23:43:54.006Z,9.40
2022-10-07T23:46:24.005Z,9.40
2022-10-07T23:48:51.090Z,9.30
2022-10-07T23:51:21.738Z,9.30
2022-10-07T23:53:49.182Z,9.30
2022-10-07T23:56:18.194Z,9.30
2022-10-07T23:58:44.937Z,9.20
